Huvudsida
METAR-TAF:

METAR-TAF

Flygplatser :

Debrecens internationella flygplats

Debrecen, Ungern

latitud: 47-29N, longitud: 021-36E, höjd: 108 m

Aktuellt väderrapport

Denna rapport gjordes för 43 minuter sedan, klockan 04:45 UTC
Vind 14 kt från väst/sydväst
Temperatur 1°C
Fuktighet 100%
Tryck 1005 hPa
Sikt: 9000 m

METAR: LHDC 290445Z AUTO 24014KT 9000 NSC 01/01 Q1005 NOSIG

Tid: 06:28 (05:28 UTC)

Väderprognos

Denna rapport gjordes för 2 timmar och 28 minuter sedan, klockan 03:00 UTC
Prognos gäller från 29 kl. 03 UTC till 29 kl. 12 UTC
Vind 6 kt från väst/sydväst
Sikt 10 km eller mer
Inga moln under 1 500 m eller inga cumulonimbus
Blir
från 29 kl. 04 UTC till 29 kl. 07 UTC
Vind 14 kt från väst/sydväst i byarna ända upp till 24 kt
Temporärt
från 29 kl. 09 UTC till 29 kl. 12 UTC
Sikt 10 km eller mer
Spridda moln på en höjd av 2000 ft

TAF: LHDC 290300Z 2903/2912 25006KT CAVOK BECMG 2904/2907 25014G24KT TEMPO 2909/2912 9999 SCT020

Aktuella väderrapporter och prognoser från 4000 flygplatser (METAR- och TAF-rapporter).

De tillgängliga stationerna syns som gula och röda prickar på kartan.

För musen över prickarna för att se namnen på stationerna.

Klicka sedan för att få väderrapporter och prognoser.

För att ändra kartan: Klicka på de gröna knapparna med ett svart kors på för att zooma in; den gröna knappen med ett streck på för att zooma ut; eller på de gröna pilarna för angränsande kartor.


METAR-TAF: